Ana Sayfa
METAR-TAF:

METAR-TAF

Havaalanları :

Cidde, Suudi Arabistan

Enlem: 21-42N, Boylam: 039-11E, yükseklik: 15 m

Güncel hava durumu gözlemi

Rapor saat 16:00 UTC de 1 saat ve 5 dakika önce yapıldı.
Rüzgar kuzey/kuzeybatıdan 8 kt
Sıcaklık 26°C
Nem 65%
Basınç 1013 hPa
Görüş mesafesi 10 km veya daha fazla
4000 ft yükseklikte az bulutlu

METAR: OEJN 141600Z 34008KT 9999 FEW040 26/19 Q1013 NOSIG

Saat: 20:05 (17:05 UTC)

Tahmin

Rapor saat 11:00 UTC de 6 saat ve 5 dakika önce yapıldı.
Ayın 14'si saat 12 UTC'den ayın 15'si saat 18 UTC'ye kadar geçerli Tahmin
Rüzgar batı/kuzeybatıdan 12 kt
Görüş mesafesi 10 km veya daha fazla
4000 ft yükseklikte az bulutlu
10000 ft yükseklikte parçalı bulutlu
Dönüşüyor
ayın 14'si saat 18 UTC'den ayın 14'si saat 20 UTC'ye kadar
Rüzgar değişken yönden 3 kt

TAF: OEJN 141100Z 1412/1518 30012KT 9999 FEW040 SCT100 BECMG 1418/1420 VRB03KT

4.000'den fazla havaalanı için hava durumu gözlemleri ve tahminleri (METAR ve TAF raporları).

Kullanılabilir istasyonlar harita üzerinde sarı ve kırmızı noktalarla gösterilir.

İstasyonun adını görmek için fareyi noktanın üzerinde gezdirin.

Sonrasında hava gözlem ve tahminlerini görmek için tıklayın.

Haritayı değiştirmek için: yaklaştırmak için siyah artı işaretli yeşil düğmeye ve uzaklaştırmak için de eksi işaretli düğmeye hızla tıklayın; bitişik haritalar için yeşil okları kullanın.


METAR-TAF: